createdAt,value
2022-09-07T00:00:06.448Z,67
2022-09-07T00:01:46.208Z,66
2022-09-07T00:03:25.970Z,66
2022-09-07T00:05:05.729Z,67
2022-09-07T00:06:45.492Z,67
2022-09-07T00:08:25.260Z,67
2022-09-07T00:10:05.031Z,67
2022-09-07T00:11:44.793Z,67
2022-09-07T00:13:24.553Z,67
2022-09-07T00:16:44.080Z,67
2022-09-07T00:18:23.855Z,67
2022-09-07T00:20:03.609Z,67
2022-09-07T00:21:43.369Z,67
2022-09-07T00:23:23.139Z,66
2022-09-07T00:25:02.902Z,67
2022-09-07T00:26:42.668Z,67
2022-09-07T00:28:22.431Z,67
2022-09-07T00:30:02.199Z,67
2022-09-07T00:31:41.966Z,66
2022-09-07T00:33:21.721Z,67
2022-09-07T00:36:41.250Z,67
2022-09-07T00:38:21.008Z,66
2022-09-07T00:40:00.790Z,66
2022-09-07T00:41:40.533Z,66
2022-09-07T00:43:20.296Z,66
2022-09-07T00:46:39.830Z,66
2022-09-07T00:48:19.593Z,66
2022-09-07T00:49:59.359Z,66
2022-09-07T00:51:39.115Z,65
2022-09-07T00:53:18.891Z,66
2022-09-07T00:56:38.415Z,65
2022-09-07T00:58:18.181Z,66
2022-09-07T00:59:57.952Z,66
2022-09-07T01:01:37.718Z,66
2022-09-07T01:03:17.467Z,66
2022-09-07T01:04:57.242Z,66
2022-09-07T01:06:37.013Z,65
2022-09-07T01:08:16.754Z,66
2022-09-07T01:09:56.528Z,66
2022-09-07T01:11:36.301Z,65
2022-09-07T01:13:16.056Z,65
2022-09-07T01:14:55.812Z,66
2022-09-07T01:18:15.366Z,65
2022-09-07T01:19:55.119Z,65
2022-09-07T01:21:34.877Z,66
2022-09-07T01:23:14.648Z,65
2022-09-07T01:26:34.171Z,66
2022-09-07T01:28:13.931Z,65
2022-09-07T01:29:53.690Z,66
2022-09-07T01:31:33.475Z,65
2022-09-07T01:33:13.232Z,65
2022-09-07T01:34:52.978Z,65
2022-09-07T01:36:32.755Z,65
2022-09-07T01:38:12.509Z,65
2022-09-07T01:39:52.283Z,65
2022-09-07T01:41:32.036Z,66
2022-09-07T01:43:11.811Z,64
2022-09-07T01:44:51.572Z,65
2022-09-07T01:46:31.331Z,65
2022-09-07T01:48:11.101Z,65
2022-09-07T01:49:50.856Z,65
2022-09-07T01:51:30.624Z,65
2022-09-07T01:53:10.406Z,65
2022-09-07T01:56:29.921Z,65
2022-09-07T01:59:49.454Z,64
2022-09-07T02:01:29.221Z,65
2022-09-07T02:03:08.969Z,65
2022-09-07T02:06:28.499Z,65
2022-09-07T02:08:08.272Z,64
2022-09-07T02:09:48.031Z,64
2022-09-07T02:11:27.787Z,64
2022-09-07T02:13:07.552Z,64
2022-09-07T02:14:47.328Z,64
2022-09-07T02:16:27.105Z,64
2022-09-07T02:18:06.861Z,64
2022-09-07T02:19:46.611Z,64
2022-09-07T02:21:26.370Z,63
2022-09-07T02:23:06.126Z,64
2022-09-07T02:26:25.683Z,63
2022-09-07T02:28:05.431Z,63
2022-09-07T02:29:45.216Z,64
2022-09-07T02:31:24.958Z,64
2022-09-07T02:33:04.717Z,63
2022-09-07T02:34:44.494Z,63
2022-09-07T02:36:24.247Z,64
2022-09-07T02:38:04.013Z,63
2022-09-07T02:39:43.785Z,64
2022-09-07T02:41:23.547Z,64
2022-09-07T02:43:03.308Z,63
2022-09-07T02:46:22.844Z,64
2022-09-07T02:48:02.599Z,63
2022-09-07T02:49:42.368Z,63
2022-09-07T02:51:22.130Z,63
2022-09-07T02:53:01.890Z,63
2022-09-07T02:56:21.431Z,63
2022-09-07T02:58:01.182Z,63
2022-09-07T02:59:40.956Z,63
2022-09-07T03:01:20.708Z,63
2022-09-07T03:03:00.468Z,63
2022-09-07T03:06:20.004Z,63
2022-09-07T03:07:59.768Z,63
2022-09-07T03:09:39.523Z,63
2022-09-07T03:11:19.307Z,63
2022-09-07T03:12:59.050Z,63
2022-09-07T03:16:18.590Z,63
2022-09-07T03:17:58.349Z,63
2022-09-07T03:19:38.120Z,63
2022-09-07T03:21:17.882Z,62
2022-09-07T03:22:57.652Z,62
2022-09-07T03:26:17.180Z,62
2022-09-07T03:27:56.937Z,62
2022-09-07T03:29:36.700Z,62
2022-09-07T03:31:16.461Z,62
2022-09-07T03:32:56.228Z,62
2022-09-07T03:36:15.745Z,62
2022-09-07T03:37:55.506Z,61
2022-09-07T03:39:35.278Z,62
2022-09-07T03:41:15.058Z,62
2022-09-07T03:42:54.800Z,61
2022-09-07T03:46:14.340Z,62
2022-09-07T03:47:54.090Z,61
2022-09-07T03:49:33.853Z,61
2022-09-07T03:52:53.401Z,61
2022-09-07T03:56:12.922Z,61
2022-09-07T03:57:52.681Z,60
2022-09-07T03:59:32.435Z,61
2022-09-07T04:01:12.221Z,60
2022-09-07T04:02:51.986Z,60
2022-09-07T04:04:31.731Z,61
2022-09-07T04:06:11.498Z,61
2022-09-07T04:07:51.263Z,61
2022-09-07T04:09:31.038Z,60
2022-09-07T04:11:10.803Z,60
2022-09-07T04:12:50.564Z,61
2022-09-07T04:16:10.083Z,61
2022-09-07T04:17:49.834Z,61
2022-09-07T04:19:29.608Z,60
2022-09-07T04:21:09.390Z,60
2022-09-07T04:22:49.148Z,60
2022-09-07T04:24:28.897Z,61
2022-09-07T04:26:08.664Z,61
2022-09-07T04:27:48.420Z,61
2022-09-07T04:29:28.189Z,61
2022-09-07T04:32:47.720Z,60
2022-09-07T04:36:07.245Z,61
2022-09-07T04:37:47.005Z,60
2022-09-07T04:39:26.809Z,61
2022-09-07T04:41:06.555Z,61
2022-09-07T04:42:46.318Z,61
2022-09-07T04:44:26.080Z,61
2022-09-07T04:46:05.836Z,61
2022-09-07T04:47:45.608Z,61
2022-09-07T04:49:25.357Z,62
2022-09-07T04:51:05.144Z,62
2022-09-07T04:52:44.903Z,62
2022-09-07T04:56:04.416Z,62
2022-09-07T04:57:44.186Z,62
2022-09-07T04:59:23.943Z,63
2022-09-07T05:01:03.721Z,63
2022-09-07T05:02:43.484Z,64
2022-09-07T05:04:23.245Z,64
2022-09-07T05:06:02.998Z,64
2022-09-07T05:07:42.765Z,65
2022-09-07T05:09:22.525Z,65
2022-09-07T05:11:02.285Z,65
2022-09-07T05:12:42.064Z,67
2022-09-07T05:14:21.821Z,67
2022-09-07T05:16:01.583Z,68
2022-09-07T05:17:41.358Z,69
2022-09-07T05:19:21.119Z,70
2022-09-07T05:21:00.881Z,71
2022-09-07T05:22:40.628Z,72
2022-09-07T05:24:20.414Z,74
2022-09-07T05:26:00.171Z,75
2022-09-07T05:27:39.935Z,76
2022-09-07T05:29:19.693Z,78
2022-09-07T05:30:59.464Z,79
2022-09-07T05:32:39.221Z,80
2022-09-07T05:35:58.742Z,82
2022-09-07T05:37:38.522Z,82
2022-09-07T05:39:18.276Z,83
2022-09-07T05:40:58.044Z,83
2022-09-07T05:42:37.798Z,86
2022-09-07T05:44:17.581Z,86
2022-09-07T05:45:57.348Z,86
2022-09-07T05:47:37.106Z,86
2022-09-07T05:49:16.869Z,86
2022-09-07T05:50:56.631Z,86
2022-09-07T05:52:36.392Z,86
2022-09-07T05:54:16.161Z,86
2022-09-07T05:55:55.918Z,87
2022-09-07T05:57:35.682Z,88
2022-09-07T05:59:15.450Z,88
2022-09-07T06:00:55.219Z,89
2022-09-07T06:02:34.966Z,89
2022-09-07T06:04:14.727Z,90
2022-09-07T06:05:54.508Z,90
2022-09-07T06:07:34.276Z,90
2022-09-07T06:09:14.031Z,91
2022-09-07T06:10:53.799Z,91
2022-09-07T06:12:33.557Z,91
2022-09-07T06:14:13.318Z,91
2022-09-07T06:15:53.088Z,92
2022-09-07T06:17:32.843Z,92
2022-09-07T06:19:12.614Z,92
2022-09-07T06:20:52.372Z,93
2022-09-07T06:22:32.133Z,93
2022-09-07T06:24:11.915Z,94
2022-09-07T06:25:51.688Z,94
2022-09-07T06:27:31.433Z,96
2022-09-07T06:29:11.195Z,96
2022-09-07T06:30:50.964Z,97
2022-09-07T06:32:30.732Z,98
2022-09-07T06:34:10.496Z,99
2022-09-07T06:35:50.245Z,100
2022-09-07T06:37:30.020Z,100
2022-09-07T06:39:09.777Z,100
2022-09-07T06:40:49.537Z,100
2022-09-07T06:42:29.305Z,100
2022-09-07T06:44:09.071Z,100
2022-09-07T06:45:48.837Z,100
2022-09-07T06:47:28.618Z,100
2022-09-07T06:49:08.372Z,100
2022-09-07T06:52:27.900Z,100
2022-09-07T06:54:07.670Z,100
2022-09-07T06:55:47.432Z,100
2022-09-07T06:57:27.188Z,100
2022-09-07T06:59:06.964Z,100
2022-09-07T07:00:46.761Z,100
2022-09-07T07:02:26.485Z,100
2022-09-07T07:04:06.268Z,100
2022-09-07T07:05:46.015Z,100
2022-09-07T07:07:25.768Z,100
2022-09-07T07:09:05.544Z,100
2022-09-07T07:10:45.293Z,100
2022-09-07T07:14:04.839Z,100
2022-09-07T07:15:44.604Z,100
2022-09-07T07:17:24.372Z,100
2022-09-07T07:19:04.140Z,100
2022-09-07T07:20:43.897Z,100
2022-09-07T07:22:23.651Z,100
2022-09-07T07:24:03.422Z,100
2022-09-07T07:25:43.166Z,100
2022-09-07T07:27:22.948Z,100
2022-09-07T07:29:02.739Z,100
2022-09-07T07:30:42.488Z,100
2022-09-07T07:32:22.232Z,100
2022-09-07T07:35:41.768Z,100
2022-09-07T07:37:21.523Z,100
2022-09-07T07:39:01.291Z,100
2022-09-07T07:40:41.062Z,100
2022-09-07T07:42:20.823Z,100
2022-09-07T07:44:00.587Z,100
2022-09-07T07:45:40.353Z,100
2022-09-07T07:47:20.102Z,100
2022-09-07T07:48:59.883Z,100
2022-09-07T07:52:19.399Z,100
2022-09-07T07:53:59.179Z,100
2022-09-07T07:55:38.928Z,100
2022-09-07T07:57:18.759Z,100
2022-09-07T07:58:58.470Z,100
2022-09-07T08:00:38.274Z,100
2022-09-07T08:02:17.997Z,100
2022-09-07T08:03:57.758Z,100
2022-09-07T08:05:37.511Z,100
2022-09-07T08:07:17.293Z,100
2022-09-07T08:08:57.046Z,100
2022-09-07T08:10:36.818Z,100
2022-09-07T08:12:16.601Z,100
2022-09-07T08:13:56.339Z,100
2022-09-07T08:15:36.089Z,100
2022-09-07T08:17:15.865Z,100
2022-09-07T08:18:55.618Z,100
2022-09-07T08:20:35.401Z,100
2022-09-07T08:22:15.167Z,100
2022-09-07T08:25:34.688Z,100
2022-09-07T08:27:14.463Z,100
2022-09-07T08:28:54.213Z,100
2022-09-07T08:30:33.968Z,100
2022-09-07T08:32:13.743Z,100
2022-09-07T08:33:53.507Z,100
2022-09-07T08:35:33.278Z,100
2022-09-07T08:37:13.041Z,100
2022-09-07T08:38:52.789Z,100
2022-09-07T08:40:32.565Z,100
2022-09-07T08:42:12.342Z,100
2022-09-07T08:45:31.853Z,100
2022-09-07T08:47:11.614Z,97
2022-09-07T08:48:51.378Z,98
2022-09-07T08:50:31.136Z,100
2022-09-07T08:52:10.939Z,100
2022-09-07T08:53:50.671Z,100
2022-09-07T08:55:30.438Z,100
2022-09-07T08:57:10.203Z,100
2022-09-07T08:58:49.971Z,100
2022-09-07T09:00:29.745Z,100
2022-09-07T09:03:49.318Z,100
2022-09-07T09:05:29.102Z,100
2022-09-07T09:07:08.773Z,100
2022-09-07T09:08:48.560Z,99
2022-09-07T09:10:28.309Z,100
2022-09-07T09:12:08.092Z,100
2022-09-07T09:13:47.832Z,100
2022-09-07T09:15:27.592Z,100
2022-09-07T09:17:07.412Z,100
2022-09-07T09:18:47.135Z,100
2022-09-07T09:20:26.975Z,100
2022-09-07T09:22:06.658Z,100
2022-09-07T09:23:46.461Z,100
2022-09-07T09:27:05.982Z,100
2022-09-07T09:28:45.721Z,100
2022-09-07T09:30:25.502Z,100
2022-09-07T09:32:05.249Z,100
2022-09-07T09:33:45.021Z,100
2022-09-07T09:35:24.774Z,100
2022-09-07T09:37:04.558Z,100
2022-09-07T09:38:44.332Z,100
2022-09-07T09:40:24.072Z,100
2022-09-07T09:42:03.837Z,100
2022-09-07T09:43:43.593Z,100
2022-09-07T09:45:23.350Z,100
2022-09-07T09:47:03.124Z,100
2022-09-07T09:48:42.951Z,100
2022-09-07T09:50:22.659Z,100
2022-09-07T09:52:02.424Z,100
2022-09-07T09:55:21.937Z,100
2022-09-07T09:57:01.747Z,100
2022-09-07T09:58:41.475Z,100
2022-09-07T10:00:21.242Z,100
2022-09-07T10:02:00.995Z,100
2022-09-07T10:05:20.527Z,99
2022-09-07T10:07:00.344Z,100
2022-09-07T10:08:40.086Z,99
2022-09-07T10:10:19.821Z,98
2022-09-07T10:11:59.576Z,99
2022-09-07T10:13:39.377Z,100
2022-09-07T10:15:19.119Z,100
2022-09-07T10:16:58.891Z,99
2022-09-07T10:18:38.652Z,99
2022-09-07T10:20:18.431Z,100
2022-09-07T10:21:58.172Z,100
2022-09-07T10:25:17.782Z,100
2022-09-07T10:26:57.524Z,100
2022-09-07T10:28:37.221Z,100
2022-09-07T10:30:16.989Z,100
2022-09-07T10:31:56.757Z,100
2022-09-07T10:33:36.546Z,100
2022-09-07T10:35:16.323Z,100
2022-09-07T10:36:56.085Z,100
2022-09-07T10:38:35.818Z,100
2022-09-07T10:40:15.584Z,99
2022-09-07T10:41:55.353Z,100
2022-09-07T10:43:35.105Z,99
2022-09-07T10:45:14.866Z,100
2022-09-07T10:46:54.640Z,100
2022-09-07T10:48:34.425Z,100
2022-09-07T10:50:14.161Z,100
2022-09-07T10:51:53.946Z,100
2022-09-07T10:55:13.467Z,100
2022-09-07T10:56:53.235Z,100
2022-09-07T10:58:32.979Z,100
2022-09-07T11:00:12.754Z,100
2022-09-07T11:01:52.536Z,100
2022-09-07T11:05:12.045Z,100
2022-09-07T11:06:51.829Z,100
2022-09-07T11:08:31.575Z,100
2022-09-07T11:10:11.339Z,100
2022-09-07T11:11:51.082Z,100
2022-09-07T11:13:30.856Z,100
2022-09-07T11:15:10.658Z,100
2022-09-07T11:16:50.392Z,100
2022-09-07T11:18:30.154Z,100
2022-09-07T11:20:09.921Z,100
2022-09-07T11:21:49.686Z,100
2022-09-07T11:25:09.198Z,100
2022-09-07T11:26:48.980Z,100
2022-09-07T11:28:28.754Z,100
2022-09-07T11:30:08.499Z,100
2022-09-07T11:31:48.255Z,100
2022-09-07T11:33:28.075Z,100
2022-09-07T11:35:07.790Z,100
2022-09-07T11:36:47.546Z,100
2022-09-07T11:38:27.368Z,100
2022-09-07T11:40:07.094Z,100
2022-09-07T11:41:46.899Z,98
2022-09-07T11:45:06.384Z,99
2022-09-07T11:48:25.915Z,100
2022-09-07T11:50:05.679Z,99
2022-09-07T11:51:45.425Z,99
2022-09-07T11:53:25.211Z,99
2022-09-07T11:55:04.982Z,100
2022-09-07T11:56:44.767Z,100
2022-09-07T11:58:24.492Z,100
2022-09-07T12:00:04.255Z,99
2022-09-07T12:01:44.025Z,98
2022-09-07T12:05:03.536Z,100
2022-09-07T12:06:43.310Z,100
2022-09-07T12:08:23.126Z,100
2022-09-07T12:10:02.848Z,100
2022-09-07T12:11:42.607Z,100
2022-09-07T12:15:02.135Z,100
2022-09-07T12:16:41.887Z,100
2022-09-07T12:18:21.683Z,100
2022-09-07T12:20:01.433Z,100
2022-09-07T12:21:41.211Z,100
2022-09-07T12:25:00.716Z,100
2022-09-07T12:26:40.498Z,100
2022-09-07T12:28:20.250Z,99
2022-09-07T12:30:00.022Z,99
2022-09-07T12:31:39.775Z,100
2022-09-07T12:34:59.302Z,100
2022-09-07T12:36:39.079Z,100
2022-09-07T12:38:18.852Z,100
2022-09-07T12:39:58.598Z,100
2022-09-07T12:41:38.362Z,100
2022-09-07T12:46:37.678Z,100
2022-09-07T12:48:17.469Z,100
2022-09-07T12:49:57.189Z,100
2022-09-07T12:51:37.002Z,100
2022-09-07T12:54:56.465Z,100
2022-09-07T12:56:36.245Z,100
2022-09-07T12:58:16.013Z,100
2022-09-07T12:59:55.814Z,100
2022-09-07T13:01:35.539Z,100
2022-09-07T13:04:55.060Z,100
2022-09-07T13:06:34.822Z,100
2022-09-07T13:08:14.612Z,100
2022-09-07T13:09:54.352Z,100
2022-09-07T13:11:34.123Z,100
2022-09-07T13:14:53.654Z,100
2022-09-07T13:16:33.406Z,100
2022-09-07T13:18:13.169Z,100
2022-09-07T13:19:53.024Z,100
2022-09-07T13:21:32.799Z,100
2022-09-07T13:23:12.464Z,100
2022-09-07T13:24:52.224Z,99
2022-09-07T13:26:31.998Z,100
2022-09-07T13:28:11.759Z,100
2022-09-07T13:29:51.526Z,99
2022-09-07T13:31:31.331Z,99
2022-09-07T13:34:50.813Z,100
2022-09-07T13:36:30.586Z,100
2022-09-07T13:38:10.353Z,100
2022-09-07T13:39:50.099Z,100
2022-09-07T13:41:29.896Z,99
2022-09-07T13:44:49.406Z,98
2022-09-07T13:46:29.167Z,100
2022-09-07T13:48:08.935Z,100
2022-09-07T13:49:48.694Z,99
2022-09-07T13:51:28.498Z,98
2022-09-07T13:53:08.278Z,100
2022-09-07T13:54:47.973Z,98
2022-09-07T13:56:27.754Z,97
2022-09-07T13:58:07.517Z,99
2022-09-07T13:59:47.285Z,98
2022-09-07T14:01:27.077Z,100
2022-09-07T14:04:46.626Z,100
2022-09-07T14:06:26.328Z,100
2022-09-07T14:08:06.094Z,98
2022-09-07T14:09:45.927Z,100
2022-09-07T14:11:25.673Z,99
2022-09-07T14:13:05.395Z,98
2022-09-07T14:14:45.221Z,97
2022-09-07T14:16:24.927Z,98
2022-09-07T14:18:04.673Z,100
2022-09-07T14:19:44.477Z,100
2022-09-07T14:21:24.211Z,98
2022-09-07T14:24:43.761Z,100
2022-09-07T14:28:03.263Z,100
2022-09-07T14:29:43.034Z,98
2022-09-07T14:31:22.798Z,98
2022-09-07T14:34:42.318Z,97
2022-09-07T14:36:22.097Z,98
2022-09-07T14:38:01.898Z,98
2022-09-07T14:39:41.618Z,100
2022-09-07T14:41:21.425Z,97
2022-09-07T14:43:01.137Z,98
2022-09-07T14:44:40.909Z,98
2022-09-07T14:46:20.676Z,98
2022-09-07T14:48:00.440Z,98
2022-09-07T14:51:19.970Z,99
2022-09-07T14:52:59.739Z,100
2022-09-07T14:54:39.510Z,100
2022-09-07T14:56:19.281Z,98
2022-09-07T14:57:59.027Z,99
2022-09-07T14:59:38.781Z,100
2022-09-07T15:01:18.553Z,97
2022-09-07T15:02:58.336Z,98
2022-09-07T15:04:38.080Z,97
2022-09-07T15:06:17.840Z,97
2022-09-07T15:07:57.614Z,98
2022-09-07T15:09:37.381Z,99
2022-09-07T15:11:17.131Z,98
2022-09-07T15:14:36.666Z,98
2022-09-07T15:16:16.425Z,98
2022-09-07T15:17:56.187Z,97
2022-09-07T15:19:35.959Z,97
2022-09-07T15:21:15.724Z,98
2022-09-07T15:24:35.258Z,98
2022-09-07T15:26:15.018Z,98
2022-09-07T15:27:54.790Z,98
2022-09-07T15:29:34.542Z,97
2022-09-07T15:31:14.304Z,98
2022-09-07T15:32:54.072Z,98
2022-09-07T15:34:33.853Z,97
2022-09-07T15:36:13.607Z,98
2022-09-07T15:37:53.359Z,97
2022-09-07T15:39:33.134Z,97
2022-09-07T15:41:12.898Z,98
2022-09-07T15:44:32.416Z,97
2022-09-07T15:46:12.174Z,98
2022-09-07T15:47:52.056Z,97
2022-09-07T15:49:31.705Z,100
2022-09-07T15:51:11.485Z,99
2022-09-07T15:52:51.237Z,100
2022-09-07T15:54:31.001Z,97
2022-09-07T15:56:10.795Z,98
2022-09-07T15:57:50.549Z,96
2022-09-07T15:59:30.300Z,99
2022-09-07T16:01:10.087Z,99
2022-09-07T16:02:49.830Z,98
2022-09-07T16:04:29.640Z,98
2022-09-07T16:06:09.353Z,98
2022-09-07T16:07:49.146Z,97
2022-09-07T16:09:28.879Z,98
2022-09-07T16:11:08.697Z,100
2022-09-07T16:12:48.421Z,97
2022-09-07T16:14:28.221Z,98
2022-09-07T16:16:07.959Z,97
2022-09-07T16:17:47.699Z,98
2022-09-07T16:19:27.477Z,98
2022-09-07T16:21:07.234Z,98
2022-09-07T16:24:26.773Z,99
2022-09-07T16:26:06.546Z,99
2022-09-07T16:27:46.302Z,98
2022-09-07T16:29:26.096Z,98
2022-09-07T16:31:05.828Z,98
2022-09-07T16:32:45.575Z,100
2022-09-07T16:34:25.375Z,97
2022-09-07T16:36:05.164Z,98
2022-09-07T16:37:44.876Z,98
2022-09-07T16:39:24.636Z,98
2022-09-07T16:41:04.403Z,98
2022-09-07T16:42:44.228Z,100
2022-09-07T16:46:03.721Z,100
2022-09-07T16:47:43.454Z,98
2022-09-07T16:51:03.012Z,98
2022-09-07T16:54:22.552Z,100
2022-09-07T16:57:42.042Z,97
2022-09-07T16:59:21.805Z,98
2022-09-07T17:01:01.566Z,97
2022-09-07T17:02:41.337Z,98
2022-09-07T17:04:21.120Z,97
2022-09-07T17:07:40.623Z,87
2022-09-07T17:09:20.397Z,84
2022-09-07T17:11:00.162Z,82
2022-09-07T17:12:39.938Z,83
2022-09-07T17:14:19.688Z,82
2022-09-07T17:17:39.254Z,81
2022-09-07T17:19:18.976Z,79
2022-09-07T17:20:58.741Z,78
2022-09-07T17:22:38.515Z,77
2022-09-07T17:24:18.310Z,76
2022-09-07T17:25:58.041Z,75
2022-09-07T17:27:37.819Z,75
2022-09-07T17:29:17.656Z,73
2022-09-07T17:32:37.099Z,73
2022-09-07T17:34:16.840Z,74
2022-09-07T17:35:56.610Z,74
2022-09-07T17:37:36.404Z,73
2022-09-07T17:39:16.153Z,73
2022-09-07T17:40:55.918Z,72
2022-09-07T17:42:35.682Z,73
2022-09-07T17:44:15.454Z,73
2022-09-07T17:45:55.203Z,72
2022-09-07T17:47:34.981Z,72
2022-09-07T17:49:14.746Z,72
2022-09-07T17:50:54.526Z,72
2022-09-07T17:52:34.268Z,72
2022-09-07T17:54:14.037Z,72
2022-09-07T17:55:53.789Z,72
2022-09-07T17:57:33.543Z,72
2022-09-07T17:59:13.323Z,72
2022-09-07T18:00:53.071Z,70
2022-09-07T18:04:12.618Z,72
2022-09-07T18:05:52.370Z,72
2022-09-07T18:07:32.138Z,72
2022-09-07T18:09:11.937Z,72
2022-09-07T18:10:51.657Z,72
2022-09-07T18:12:31.482Z,71
2022-09-07T18:14:11.235Z,71
2022-09-07T18:15:50.954Z,72
2022-09-07T18:17:30.747Z,71
2022-09-07T18:19:10.489Z,71
2022-09-07T18:20:50.248Z,71
2022-09-07T18:22:30.012Z,72
2022-09-07T18:24:09.768Z,71
2022-09-07T18:25:49.536Z,71
2022-09-07T18:27:29.394Z,71
2022-09-07T18:29:09.061Z,71
2022-09-07T18:30:48.825Z,71
2022-09-07T18:32:28.685Z,71
2022-09-07T18:34:08.374Z,71
2022-09-07T18:35:48.131Z,71
2022-09-07T18:37:27.897Z,71
2022-09-07T18:39:07.651Z,71
2022-09-07T18:40:47.426Z,70
2022-09-07T18:42:27.189Z,71
2022-09-07T18:44:06.959Z,71
2022-09-07T18:45:46.701Z,71
2022-09-07T18:47:26.493Z,70
2022-09-07T18:49:06.244Z,71
2022-09-07T18:50:46.017Z,70
2022-09-07T18:54:05.539Z,70
2022-09-07T18:55:45.293Z,71
2022-09-07T18:57:25.062Z,71
2022-09-07T18:59:04.925Z,70
2022-09-07T19:02:24.357Z,71
2022-09-07T19:04:04.112Z,71
2022-09-07T19:05:43.879Z,71
2022-09-07T19:07:23.641Z,70
2022-09-07T19:09:03.403Z,71
2022-09-07T19:10:43.173Z,70
2022-09-07T19:12:22.930Z,71
2022-09-07T19:14:02.714Z,71
2022-09-07T19:15:42.463Z,71
2022-09-07T19:17:22.229Z,71
2022-09-07T19:19:01.990Z,70
2022-09-07T19:20:41.752Z,70
2022-09-07T19:22:21.518Z,69
2022-09-07T19:24:01.286Z,71
2022-09-07T19:25:41.040Z,71
2022-09-07T19:27:20.818Z,71
2022-09-07T19:29:00.574Z,70
2022-09-07T19:30:40.334Z,71
2022-09-07T19:32:20.169Z,71
2022-09-07T19:33:59.869Z,70
2022-09-07T19:35:39.667Z,69
2022-09-07T19:37:19.404Z,69
2022-09-07T19:38:59.146Z,69
2022-09-07T19:40:38.979Z,71
2022-09-07T19:42:18.705Z,69
2022-09-07T19:45:38.213Z,69
2022-09-07T19:47:18.018Z,71
2022-09-07T19:48:57.752Z,69
2022-09-07T19:50:37.497Z,70
2022-09-07T19:52:17.320Z,69
2022-09-07T19:53:57.047Z,70
2022-09-07T19:55:36.790Z,70
2022-09-07T19:57:16.565Z,69
2022-09-07T19:58:56.356Z,69
2022-09-07T20:00:36.096Z,69
2022-09-07T20:02:15.866Z,69
2022-09-07T20:03:55.624Z,69
2022-09-07T20:05:35.415Z,69
2022-09-07T20:07:15.174Z,70
2022-09-07T20:08:54.909Z,70
2022-09-07T20:10:34.684Z,69
2022-09-07T20:12:14.465Z,69
2022-09-07T20:13:54.234Z,69
2022-09-07T20:15:33.971Z,70
2022-09-07T20:17:13.734Z,69
2022-09-07T20:18:53.492Z,70
2022-09-07T20:20:33.254Z,69
2022-09-07T20:23:52.808Z,70
2022-09-07T20:25:32.547Z,69
2022-09-07T20:27:12.402Z,69
2022-09-07T20:28:52.077Z,69
2022-09-07T20:30:31.844Z,69
2022-09-07T20:32:11.647Z,69
2022-09-07T20:33:51.377Z,69
2022-09-07T20:35:31.142Z,69
2022-09-07T20:37:10.930Z,69
2022-09-07T20:38:50.672Z,69
2022-09-07T20:40:30.528Z,69
2022-09-07T20:42:10.204Z,69
2022-09-07T20:43:49.970Z,70
2022-09-07T20:45:29.723Z,69
2022-09-07T20:47:09.504Z,69
2022-09-07T20:48:49.250Z,69
2022-09-07T20:50:29.013Z,69
2022-09-07T20:52:08.836Z,69
2022-09-07T20:53:48.531Z,69
2022-09-07T20:55:28.311Z,69
2022-09-07T20:57:08.135Z,69
2022-09-07T21:00:27.618Z,69
2022-09-07T21:02:07.362Z,69
2022-09-07T21:03:47.117Z,69
2022-09-07T21:05:26.894Z,69
2022-09-07T21:07:06.640Z,69
2022-09-07T21:08:46.414Z,68
2022-09-07T21:10:26.172Z,68
2022-09-07T21:12:05.939Z,68
2022-09-07T21:13:45.748Z,69
2022-09-07T21:15:25.476Z,68
2022-09-07T21:17:05.285Z,69
2022-09-07T21:18:44.994Z,68
2022-09-07T21:20:24.825Z,69
2022-09-07T21:22:04.533Z,68
2022-09-07T21:23:44.287Z,68
2022-09-07T21:25:24.081Z,69
2022-09-07T21:27:03.821Z,69
2022-09-07T21:28:43.584Z,68
2022-09-07T21:30:23.361Z,68
2022-09-07T21:33:42.871Z,68
2022-09-07T21:35:22.635Z,68
2022-09-07T21:37:02.393Z,69
2022-09-07T21:40:21.925Z,68
2022-09-07T21:42:01.767Z,68
2022-09-07T21:43:41.463Z,68
2022-09-07T21:45:21.224Z,68
2022-09-07T21:47:00.987Z,67
2022-09-07T21:48:40.776Z,68
2022-09-07T21:50:20.519Z,68
2022-09-07T21:52:00.308Z,68
2022-09-07T21:53:40.045Z,68
2022-09-07T21:55:19.815Z,68
2022-09-07T21:56:59.600Z,68
2022-09-07T21:58:39.328Z,68
2022-09-07T22:00:19.094Z,68
2022-09-07T22:01:58.906Z,68
2022-09-07T22:03:38.630Z,68
2022-09-07T22:05:18.439Z,67
2022-09-07T22:06:58.147Z,67
2022-09-07T22:08:37.958Z,68
2022-09-07T22:10:17.687Z,68
2022-09-07T22:11:57.467Z,68
2022-09-07T22:13:37.249Z,67
2022-09-07T22:15:17.002Z,67
2022-09-07T22:16:56.747Z,68
2022-09-07T22:18:36.504Z,67
2022-09-07T22:20:16.259Z,67
2022-09-07T22:21:56.040Z,68
2022-09-07T22:23:35.796Z,68
2022-09-07T22:25:15.588Z,67
2022-09-07T22:26:55.356Z,67
2022-09-07T22:28:35.089Z,68
2022-09-07T22:30:14.884Z,67
2022-09-07T22:31:54.667Z,68
2022-09-07T22:33:34.415Z,68
2022-09-07T22:35:14.142Z,68
2022-09-07T22:36:53.926Z,68
2022-09-07T22:38:33.661Z,68
2022-09-07T22:40:13.440Z,68
2022-09-07T22:43:32.954Z,67
2022-09-07T22:45:12.762Z,67
2022-09-07T22:46:52.482Z,67
2022-09-07T22:48:32.263Z,67
2022-09-07T22:50:12.008Z,68
2022-09-07T22:51:51.792Z,68
2022-09-07T22:53:31.551Z,67
2022-09-07T22:55:11.354Z,67
2022-09-07T22:56:51.078Z,67
2022-09-07T22:58:30.836Z,67
2022-09-07T23:00:10.599Z,67
2022-09-07T23:01:50.383Z,65
2022-09-07T23:03:30.132Z,67
2022-09-07T23:05:09.982Z,67
2022-09-07T23:06:49.657Z,67
2022-09-07T23:08:29.441Z,67
2022-09-07T23:10:09.175Z,67
2022-09-07T23:11:48.964Z,67
2022-09-07T23:13:28.713Z,67
2022-09-07T23:16:48.326Z,66
2022-09-07T23:18:28.015Z,67
2022-09-07T23:20:07.775Z,67
2022-09-07T23:21:47.525Z,67
2022-09-07T23:23:27.308Z,66
2022-09-07T23:25:07.064Z,67
2022-09-07T23:26:46.828Z,66
2022-09-07T23:28:26.594Z,66
2022-09-07T23:30:06.349Z,66
2022-09-07T23:33:25.882Z,66
2022-09-07T23:35:05.645Z,66
2022-09-07T23:36:45.404Z,67
2022-09-07T23:38:25.170Z,67
2022-09-07T23:40:04.933Z,67
2022-09-07T23:43:24.472Z,67
2022-09-07T23:45:04.257Z,67
2022-09-07T23:46:43.991Z,67
2022-09-07T23:48:23.787Z,67
2022-09-07T23:50:03.522Z,66
2022-09-07T23:51:43.324Z,66
2022-09-07T23:53:23.046Z,66
2022-09-07T23:55:02.826Z,67
2022-09-07T23:56:42.572Z,67
2022-09-07T23:58:22.352Z,66
